sensor_id;sensor_type;location;lat;lon;timestamp;P1;durP1;ratioP1;P2;durP2;ratioP2
27558;SDS011;15002;52.028;5.670;2023-06-14T00:01:50;7.20;;;3.45;;
27558;SDS011;15002;52.028;5.670;2023-06-14T00:04:16;5.57;;;3.50;;
27558;SDS011;15002;52.028;5.670;2023-06-14T00:06:42;6.50;;;3.30;;
27558;SDS011;15002;52.028;5.670;2023-06-14T00:09:10;8.45;;;3.63;;
27558;SDS011;15002;52.028;5.670;2023-06-14T00:11:42;6.07;;;3.47;;
27558;SDS011;15002;52.028;5.670;2023-06-14T00:14:08;3.80;;;3.17;;
27558;SDS011;15002;52.028;5.670;2023-06-14T00:16:34;4.97;;;3.20;;
27558;SDS011;15002;52.028;5.670;2023-06-14T00:19:01;7.13;;;3.38;;
27558;SDS011;15002;52.028;5.670;2023-06-14T00:21:28;5.72;;;3.08;;
27558;SDS011;15002;52.028;5.670;2023-06-14T00:23:55;3.80;;;3.17;;
27558;SDS011;15002;52.028;5.670;2023-06-14T00:26:22;5.35;;;3.03;;
27558;SDS011;15002;52.028;5.670;2023-06-14T00:28:48;8.40;;;3.13;;
27558;SDS011;15002;52.028;5.670;2023-06-14T00:31:14;6.40;;;3.25;;
27558;SDS011;15002;52.028;5.670;2023-06-14T00:33:39;7.18;;;3.30;;
27558;SDS011;15002;52.028;5.670;2023-06-14T00:36:05;5.07;;;2.92;;
27558;SDS011;15002;52.028;5.670;2023-06-14T00:38:31;4.68;;;3.30;;
27558;SDS011;15002;52.028;5.670;2023-06-14T00:40:56;7.22;;;2.85;;
27558;SDS011;15002;52.028;5.670;2023-06-14T00:43:22;4.38;;;3.35;;
27558;SDS011;15002;52.028;5.670;2023-06-14T00:45:47;5.15;;;2.88;;
27558;SDS011;15002;52.028;5.670;2023-06-14T00:48:14;7.65;;;3.38;;
27558;SDS011;15002;52.028;5.670;2023-06-14T00:50:41;4.85;;;3.42;;
27558;SDS011;15002;52.028;5.670;2023-06-14T00:53:06;5.38;;;3.55;;
27558;SDS011;15002;52.028;5.670;2023-06-14T00:55:32;5.40;;;3.35;;
27558;SDS011;15002;52.028;5.670;2023-06-14T00:57:58;9.23;;;3.50;;
27558;SDS011;15002;52.028;5.670;2023-06-14T01:00:24;8.73;;;3.78;;
27558;SDS011;15002;52.028;5.670;2023-06-14T01:02:50;8.13;;;3.60;;
27558;SDS011;15002;52.028;5.670;2023-06-14T01:05:16;5.60;;;3.10;;
27558;SDS011;15002;52.028;5.670;2023-06-14T01:07:58;6.93;;;3.65;;
27558;SDS011;15002;52.028;5.670;2023-06-14T01:10:42;7.32;;;2.80;;
27558;SDS011;15002;52.028;5.670;2023-06-14T01:13:15;7.53;;;3.35;;
27558;SDS011;15002;52.028;5.670;2023-06-14T01:15:49;5.03;;;2.92;;
27558;SDS011;15002;52.028;5.670;2023-06-14T01:18:16;6.18;;;3.28;;
27558;SDS011;15002;52.028;5.670;2023-06-14T01:20:43;5.25;;;3.35;;
27558;SDS011;15002;52.028;5.670;2023-06-14T01:23:14;4.30;;;3.03;;
27558;SDS011;15002;52.028;5.670;2023-06-14T01:25:44;4.90;;;2.97;;
27558;SDS011;15002;52.028;5.670;2023-06-14T01:28:11;4.03;;;2.80;;
27558;SDS011;15002;52.028;5.670;2023-06-14T01:30:40;3.80;;;3.00;;
27558;SDS011;15002;52.028;5.670;2023-06-14T01:33:17;5.93;;;3.30;;
27558;SDS011;15002;52.028;5.670;2023-06-14T01:35:47;6.32;;;3.10;;
27558;SDS011;15002;52.028;5.670;2023-06-14T01:38:14;7.43;;;3.33;;
27558;SDS011;15002;52.028;5.670;2023-06-14T01:40:45;7.60;;;3.05;;
27558;SDS011;15002;52.028;5.670;2023-06-14T01:43:13;5.43;;;3.28;;
27558;SDS011;15002;52.028;5.670;2023-06-14T01:45:42;3.70;;;2.95;;
27558;SDS011;15002;52.028;5.670;2023-06-14T01:48:10;4.75;;;3.38;;
27558;SDS011;15002;52.028;5.670;2023-06-14T01:50:37;6.95;;;2.95;;
27558;SDS011;15002;52.028;5.670;2023-06-14T01:53:03;5.57;;;3.50;;
27558;SDS011;15002;52.028;5.670;2023-06-14T01:55:32;6.95;;;3.38;;
27558;SDS011;15002;52.028;5.670;2023-06-14T01:58:02;5.18;;;3.20;;
27558;SDS011;15002;52.028;5.670;2023-06-14T02:00:29;6.78;;;3.58;;
27558;SDS011;15002;52.028;5.670;2023-06-14T02:02:54;6.78;;;3.28;;
27558;SDS011;15002;52.028;5.670;2023-06-14T02:05:21;4.53;;;3.05;;
27558;SDS011;15002;52.028;5.670;2023-06-14T02:07:46;6.75;;;2.88;;
27558;SDS011;15002;52.028;5.670;2023-06-14T02:10:13;5.40;;;3.17;;
27558;SDS011;15002;52.028;5.670;2023-06-14T02:12:40;6.40;;;2.95;;
27558;SDS011;15002;52.028;5.670;2023-06-14T02:15:06;4.28;;;3.00;;
27558;SDS011;15002;52.028;5.670;2023-06-14T02:17:32;5.65;;;2.95;;
27558;SDS011;15002;52.028;5.670;2023-06-14T02:19:58;8.50;;;3.33;;
27558;SDS011;15002;52.028;5.670;2023-06-14T02:22:24;7.38;;;3.15;;
27558;SDS011;15002;52.028;5.670;2023-06-14T02:24:50;4.60;;;2.80;;
27558;SDS011;15002;52.028;5.670;2023-06-14T02:27:16;5.28;;;3.00;;
27558;SDS011;15002;52.028;5.670;2023-06-14T02:29:42;7.50;;;3.10;;
27558;SDS011;15002;52.028;5.670;2023-06-14T02:32:08;4.00;;;3.15;;
27558;SDS011;15002;52.028;5.670;2023-06-14T02:34:34;5.85;;;2.90;;
27558;SDS011;15002;52.028;5.670;2023-06-14T02:37:00;6.00;;;2.78;;
27558;SDS011;15002;52.028;5.670;2023-06-14T02:39:27;11.75;;;3.17;;
27558;SDS011;15002;52.028;5.670;2023-06-14T02:41:53;6.65;;;2.97;;
27558;SDS011;15002;52.028;5.670;2023-06-14T02:44:19;5.03;;;2.90;;
27558;SDS011;15002;52.028;5.670;2023-06-14T02:46:48;5.80;;;3.00;;
27558;SDS011;15002;52.028;5.670;2023-06-14T02:49:14;6.70;;;3.50;;
27558;SDS011;15002;52.028;5.670;2023-06-14T02:51:40;5.03;;;3.10;;
27558;SDS011;15002;52.028;5.670;2023-06-14T02:54:05;11.18;;;3.20;;
27558;SDS011;15002;52.028;5.670;2023-06-14T02:56:31;6.57;;;3.05;;
27558;SDS011;15002;52.028;5.670;2023-06-14T02:58:57;5.50;;;3.55;;
27558;SDS011;15002;52.028;5.670;2023-06-14T03:01:25;5.18;;;3.03;;
27558;SDS011;15002;52.028;5.670;2023-06-14T03:03:59;4.72;;;2.97;;
27558;SDS011;15002;52.028;5.670;2023-06-14T03:06:27;5.35;;;3.08;;
27558;SDS011;15002;52.028;5.670;2023-06-14T03:08:55;7.78;;;3.50;;
27558;SDS011;15002;52.028;5.670;2023-06-14T03:11:30;7.32;;;3.40;;
27558;SDS011;15002;52.028;5.670;2023-06-14T03:13:56;6.05;;;3.20;;
27558;SDS011;15002;52.028;5.670;2023-06-14T03:16:21;5.05;;;3.17;;
27558;SDS011;15002;52.028;5.670;2023-06-14T03:18:49;4.47;;;2.75;;
27558;SDS011;15002;52.028;5.670;2023-06-14T03:21:16;8.05;;;3.20;;
27558;SDS011;15002;52.028;5.670;2023-06-14T03:23:42;6.95;;;3.30;;
27558;SDS011;15002;52.028;5.670;2023-06-14T03:26:08;6.63;;;2.95;;
27558;SDS011;15002;52.028;5.670;2023-06-14T03:28:39;4.28;;;3.08;;
27558;SDS011;15002;52.028;5.670;2023-06-14T03:31:05;3.40;;;2.92;;
27558;SDS011;15002;52.028;5.670;2023-06-14T03:33:31;5.70;;;3.10;;
27558;SDS011;15002;52.028;5.670;2023-06-14T03:35:57;4.78;;;2.67;;
27558;SDS011;15002;52.028;5.670;2023-06-14T03:38:22;11.02;;;3.30;;
27558;SDS011;15002;52.028;5.670;2023-06-14T03:40:48;4.82;;;3.58;;
27558;SDS011;15002;52.028;5.670;2023-06-14T03:43:14;6.93;;;2.75;;
27558;SDS011;15002;52.028;5.670;2023-06-14T03:45:39;8.57;;;3.08;;
27558;SDS011;15002;52.028;5.670;2023-06-14T03:48:05;9.45;;;2.70;;
27558;SDS011;15002;52.028;5.670;2023-06-14T03:50:33;6.68;;;3.58;;
27558;SDS011;15002;52.028;5.670;2023-06-14T03:52:58;6.80;;;3.13;;
27558;SDS011;15002;52.028;5.670;2023-06-14T03:55:26;10.80;;;3.05;;
27558;SDS011;15002;52.028;5.670;2023-06-14T03:57:52;4.70;;;3.22;;
27558;SDS011;15002;52.028;5.670;2023-06-14T04:00:18;5.60;;;3.38;;
27558;SDS011;15002;52.028;5.670;2023-06-14T04:02:44;6.72;;;3.28;;
27558;SDS011;15002;52.028;5.670;2023-06-14T04:05:09;5.65;;;3.22;;
27558;SDS011;15002;52.028;5.670;2023-06-14T04:07:35;7.80;;;3.10;;
27558;SDS011;15002;52.028;5.670;2023-06-14T04:10:10;4.35;;;3.33;;
27558;SDS011;15002;52.028;5.670;2023-06-14T04:12:40;6.75;;;3.20;;
27558;SDS011;15002;52.028;5.670;2023-06-14T04:15:06;9.55;;;3.10;;
27558;SDS011;15002;52.028;5.670;2023-06-14T04:17:33;8.60;;;3.00;;
27558;SDS011;15002;52.028;5.670;2023-06-14T04:19:59;5.05;;;2.97;;
27558;SDS011;15002;52.028;5.670;2023-06-14T04:22:26;4.93;;;3.20;;
27558;SDS011;15002;52.028;5.670;2023-06-14T04:24:55;8.30;;;3.10;;
27558;SDS011;15002;52.028;5.670;2023-06-14T04:27:22;7.60;;;3.25;;
27558;SDS011;15002;52.028;5.670;2023-06-14T04:29:52;4.45;;;3.00;;
27558;SDS011;15002;52.028;5.670;2023-06-14T04:32:23;8.90;;;3.37;;
27558;SDS011;15002;52.028;5.670;2023-06-14T04:34:50;6.07;;;3.03;;
27558;SDS011;15002;52.028;5.670;2023-06-14T04:37:18;4.93;;;2.85;;
27558;SDS011;15002;52.028;5.670;2023-06-14T04:39:46;4.35;;;3.17;;
27558;SDS011;15002;52.028;5.670;2023-06-14T04:42:12;5.88;;;3.30;;
27558;SDS011;15002;52.028;5.670;2023-06-14T04:44:39;6.50;;;3.58;;
27558;SDS011;15002;52.028;5.670;2023-06-14T04:47:09;8.77;;;3.13;;
27558;SDS011;15002;52.028;5.670;2023-06-14T04:49:35;11.43;;;3.25;;
27558;SDS011;15002;52.028;5.670;2023-06-14T04:52:00;8.88;;;3.20;;
27558;SDS011;15002;52.028;5.670;2023-06-14T04:54:26;5.22;;;3.33;;
27558;SDS011;15002;52.028;5.670;2023-06-14T04:56:53;8.38;;;3.00;;
27558;SDS011;15002;52.028;5.670;2023-06-14T04:59:20;4.28;;;2.78;;
27558;SDS011;15002;52.028;5.670;2023-06-14T05:01:48;7.30;;;3.15;;
27558;SDS011;15002;52.028;5.670;2023-06-14T05:04:18;9.18;;;3.63;;
27558;SDS011;15002;52.028;5.670;2023-06-14T05:06:44;6.55;;;3.25;;
27558;SDS011;15002;52.028;5.670;2023-06-14T05:09:11;6.40;;;2.90;;
27558;SDS011;15002;52.028;5.670;2023-06-14T05:11:38;9.38;;;3.00;;
27558;SDS011;15002;52.028;5.670;2023-06-14T05:14:03;10.88;;;3.30;;
27558;SDS011;15002;52.028;5.670;2023-06-14T05:16:29;5.90;;;3.13;;
27558;SDS011;15002;52.028;5.670;2023-06-14T05:18:55;5.60;;;3.28;;
27558;SDS011;15002;52.028;5.670;2023-06-14T05:21:21;8.85;;;3.17;;
27558;SDS011;15002;52.028;5.670;2023-06-14T05:23:47;6.72;;;2.83;;
27558;SDS011;15002;52.028;5.670;2023-06-14T05:26:12;6.85;;;3.17;;
27558;SDS011;15002;52.028;5.670;2023-06-14T05:28:38;5.18;;;2.78;;
27558;SDS011;15002;52.028;5.670;2023-06-14T05:31:04;7.38;;;3.10;;
27558;SDS011;15002;52.028;5.670;2023-06-14T05:33:29;6.07;;;2.92;;
27558;SDS011;15002;52.028;5.670;2023-06-14T05:35:55;7.00;;;3.00;;
27558;SDS011;15002;52.028;5.670;2023-06-14T05:38:21;7.97;;;3.55;;
27558;SDS011;15002;52.028;5.670;2023-06-14T05:40:46;7.15;;;3.40;;
27558;SDS011;15002;52.028;5.670;2023-06-14T05:43:12;7.75;;;3.10;;
27558;SDS011;15002;52.028;5.670;2023-06-14T05:45:38;4.57;;;2.97;;
27558;SDS011;15002;52.028;5.670;2023-06-14T05:48:03;4.97;;;3.03;;
27558;SDS011;15002;52.028;5.670;2023-06-14T05:50:29;5.07;;;3.08;;
27558;SDS011;15002;52.028;5.670;2023-06-14T05:52:55;5.75;;;3.10;;
27558;SDS011;15002;52.028;5.670;2023-06-14T05:55:21;14.60;;;3.60;;
27558;SDS011;15002;52.028;5.670;2023-06-14T05:57:46;6.00;;;3.00;;
27558;SDS011;15002;52.028;5.670;2023-06-14T06:00:13;3.40;;;2.65;;
27558;SDS011;15002;52.028;5.670;2023-06-14T06:02:43;8.98;;;3.33;;
27558;SDS011;15002;52.028;5.670;2023-06-14T06:05:11;3.22;;;2.92;;
27558;SDS011;15002;52.028;5.670;2023-06-14T06:07:37;4.43;;;2.63;;
27558;SDS011;15002;52.028;5.670;2023-06-14T06:10:05;6.63;;;3.38;;
27558;SDS011;15002;52.028;5.670;2023-06-14T06:12:31;6.25;;;3.05;;
27558;SDS011;15002;52.028;5.670;2023-06-14T06:14:57;4.47;;;3.15;;
27558;SDS011;15002;52.028;5.670;2023-06-14T06:17:24;4.43;;;3.25;;
27558;SDS011;15002;52.028;5.670;2023-06-14T06:19:50;13.40;;;3.28;;
27558;SDS011;15002;52.028;5.670;2023-06-14T06:22:16;3.88;;;2.80;;
27558;SDS011;15002;52.028;5.670;2023-06-14T06:24:42;8.88;;;3.75;;
27558;SDS011;15002;52.028;5.670;2023-06-14T06:27:08;4.90;;;3.22;;
27558;SDS011;15002;52.028;5.670;2023-06-14T06:29:34;7.47;;;3.03;;
27558;SDS011;15002;52.028;5.670;2023-06-14T06:32:00;4.57;;;2.92;;
27558;SDS011;15002;52.028;5.670;2023-06-14T06:34:27;4.07;;;3.17;;
27558;SDS011;15002;52.028;5.670;2023-06-14T06:36:53;4.22;;;2.90;;
27558;SDS011;15002;52.028;5.670;2023-06-14T06:39:18;5.38;;;2.90;;
27558;SDS011;15002;52.028;5.670;2023-06-14T06:41:44;4.60;;;3.33;;
27558;SDS011;15002;52.028;5.670;2023-06-14T06:44:10;4.57;;;3.20;;
27558;SDS011;15002;52.028;5.670;2023-06-14T06:46:36;7.65;;;3.30;;
27558;SDS011;15002;52.028;5.670;2023-06-14T06:49:05;7.22;;;2.88;;
27558;SDS011;15002;52.028;5.670;2023-06-14T06:51:31;4.10;;;2.88;;
27558;SDS011;15002;52.028;5.670;2023-06-14T06:53:57;8.95;;;3.00;;
27558;SDS011;15002;52.028;5.670;2023-06-14T06:56:23;3.08;;;2.78;;
27558;SDS011;15002;52.028;5.670;2023-06-14T06:58:49;3.47;;;2.55;;
27558;SDS011;15002;52.028;5.670;2023-06-14T07:01:16;12.00;;;2.97;;
27558;SDS011;15002;52.028;5.670;2023-06-14T07:03:42;5.18;;;3.03;;
27558;SDS011;15002;52.028;5.670;2023-06-14T07:06:08;4.97;;;2.72;;
27558;SDS011;15002;52.028;5.670;2023-06-14T07:08:33;4.53;;;3.03;;
27558;SDS011;15002;52.028;5.670;2023-06-14T07:10:59;4.45;;;2.70;;
27558;SDS011;15002;52.028;5.670;2023-06-14T07:13:25;3.65;;;2.53;;
27558;SDS011;15002;52.028;5.670;2023-06-14T07:15:53;5.80;;;2.92;;
27558;SDS011;15002;52.028;5.670;2023-06-14T07:18:22;4.75;;;2.53;;
27558;SDS011;15002;52.028;5.670;2023-06-14T07:20:47;5.25;;;2.40;;
27558;SDS011;15002;52.028;5.670;2023-06-14T07:23:13;4.50;;;2.60;;
27558;SDS011;15002;52.028;5.670;2023-06-14T07:25:39;2.95;;;2.65;;
27558;SDS011;15002;52.028;5.670;2023-06-14T07:28:04;3.35;;;2.28;;
27558;SDS011;15002;52.028;5.670;2023-06-14T07:30:30;6.57;;;2.95;;
27558;SDS011;15002;52.028;5.670;2023-06-14T07:32:56;4.25;;;2.35;;
27558;SDS011;15002;52.028;5.670;2023-06-14T07:35:21;4.30;;;2.20;;
27558;SDS011;15002;52.028;5.670;2023-06-14T07:37:47;3.25;;;2.00;;
27558;SDS011;15002;52.028;5.670;2023-06-14T07:40:14;4.50;;;2.10;;
27558;SDS011;15002;52.028;5.670;2023-06-14T07:42:40;4.57;;;2.15;;
27558;SDS011;15002;52.028;5.670;2023-06-14T07:45:07;4.68;;;2.08;;
27558;SDS011;15002;52.028;5.670;2023-06-14T07:47:33;4.82;;;1.77;;
27558;SDS011;15002;52.028;5.670;2023-06-14T07:49:58;3.70;;;1.85;;
27558;SDS011;15002;52.028;5.670;2023-06-14T07:52:24;3.75;;;1.73;;
27558;SDS011;15002;52.028;5.670;2023-06-14T07:54:50;5.72;;;1.80;;
27558;SDS011;15002;52.028;5.670;2023-06-14T07:57:16;2.38;;;1.95;;
27558;SDS011;15002;52.028;5.670;2023-06-14T07:59:41;2.40;;;1.50;;
27558;SDS011;15002;52.028;5.670;2023-06-14T08:02:07;5.85;;;1.58;;
27558;SDS011;15002;52.028;5.670;2023-06-14T08:04:32;2.35;;;1.55;;
27558;SDS011;15002;52.028;5.670;2023-06-14T08:06:59;5.25;;;1.52;;
27558;SDS011;15002;52.028;5.670;2023-06-14T08:09:25;3.05;;;1.50;;
27558;SDS011;15002;52.028;5.670;2023-06-14T08:11:53;4.45;;;1.67;;
27558;SDS011;15002;52.028;5.670;2023-06-14T08:14:19;1.65;;;1.40;;
27558;SDS011;15002;52.028;5.670;2023-06-14T08:16:45;2.65;;;1.75;;
27558;SDS011;15002;52.028;5.670;2023-06-14T08:19:10;2.78;;;1.50;;
27558;SDS011;15002;52.028;5.670;2023-06-14T08:21:36;2.15;;;1.40;;
27558;SDS011;15002;52.028;5.670;2023-06-14T08:24:02;2.67;;;1.88;;
27558;SDS011;15002;52.028;5.670;2023-06-14T08:26:28;1.92;;;1.30;;
27558;SDS011;15002;52.028;5.670;2023-06-14T08:28:55;2.38;;;1.23;;
27558;SDS011;15002;52.028;5.670;2023-06-14T08:31:21;2.03;;;1.40;;
27558;SDS011;15002;52.028;5.670;2023-06-14T08:33:47;4.85;;;1.45;;
27558;SDS011;15002;52.028;5.670;2023-06-14T08:36:13;1.40;;;1.25;;
27558;SDS011;15002;52.028;5.670;2023-06-14T08:38:39;2.55;;;1.63;;
27558;SDS011;15002;52.028;5.670;2023-06-14T08:41:05;3.58;;;1.80;;
27558;SDS011;15002;52.028;5.670;2023-06-14T08:43:33;5.63;;;1.83;;
27558;SDS011;15002;52.028;5.670;2023-06-14T08:46:03;9.13;;;1.80;;
27558;SDS011;15002;52.028;5.670;2023-06-14T08:48:31;3.78;;;1.77;;
27558;SDS011;15002;52.028;5.670;2023-06-14T08:51:01;5.15;;;1.48;;
27558;SDS011;15002;52.028;5.670;2023-06-14T08:53:30;1.50;;;1.40;;
27558;SDS011;15002;52.028;5.670;2023-06-14T08:55:57;1.55;;;1.42;;
27558;SDS011;15002;52.028;5.670;2023-06-14T08:58:26;1.70;;;1.60;;
27558;SDS011;15002;52.028;5.670;2023-06-14T09:00:54;2.13;;;1.50;;
27558;SDS011;15002;52.028;5.670;2023-06-14T09:03:21;2.72;;;1.58;;
27558;SDS011;15002;52.028;5.670;2023-06-14T09:05:48;2.05;;;1.50;;
27558;SDS011;15002;52.028;5.670;2023-06-14T09:08:15;3.17;;;1.45;;
27558;SDS011;15002;52.028;5.670;2023-06-14T09:10:41;4.57;;;1.67;;
27558;SDS011;15002;52.028;5.670;2023-06-14T09:13:06;4.28;;;1.70;;
27558;SDS011;15002;52.028;5.670;2023-06-14T09:15:32;2.88;;;1.50;;
27558;SDS011;15002;52.028;5.670;2023-06-14T09:18:00;5.47;;;1.67;;
27558;SDS011;15002;52.028;5.670;2023-06-14T09:20:26;4.13;;;1.60;;
27558;SDS011;15002;52.028;5.670;2023-06-14T09:22:55;6.53;;;1.88;;
27558;SDS011;15002;52.028;5.670;2023-06-14T09:25:21;4.22;;;1.58;;
27558;SDS011;15002;52.028;5.670;2023-06-14T09:27:47;1.63;;;1.30;;
27558;SDS011;15002;52.028;5.670;2023-06-14T09:30:13;2.08;;;1.52;;
27558;SDS011;15002;52.028;5.670;2023-06-14T09:32:39;2.97;;;1.70;;
27558;SDS011;15002;52.028;5.670;2023-06-14T09:35:08;3.38;;;1.80;;
27558;SDS011;15002;52.028;5.670;2023-06-14T09:37:34;2.70;;;1.67;;
27558;SDS011;15002;52.028;5.670;2023-06-14T09:40:02;6.55;;;1.67;;
27558;SDS011;15002;52.028;5.670;2023-06-14T09:42:29;1.65;;;1.30;;
27558;SDS011;15002;52.028;5.670;2023-06-14T09:44:55;1.95;;;1.50;;
27558;SDS011;15002;52.028;5.670;2023-06-14T09:47:22;11.15;;;2.03;;
27558;SDS011;15002;52.028;5.670;2023-06-14T09:49:49;5.45;;;1.48;;
27558;SDS011;15002;52.028;5.670;2023-06-14T09:52:19;5.68;;;1.60;;
27558;SDS011;15002;52.028;5.670;2023-06-14T09:54:46;3.88;;;1.80;;
27558;SDS011;15002;52.028;5.670;2023-06-14T09:57:14;5.00;;;2.08;;
27558;SDS011;15002;52.028;5.670;2023-06-14T09:59:41;5.10;;;1.63;;
27558;SDS011;15002;52.028;5.670;2023-06-14T10:02:31;6.43;;;1.77;;
27558;SDS011;15002;52.028;5.670;2023-06-14T10:05:05;4.53;;;1.48;;
27558;SDS011;15002;52.028;5.670;2023-06-14T10:07:38;5.63;;;1.70;;
27558;SDS011;15002;52.028;5.670;2023-06-14T10:10:23;3.17;;;1.58;;
27558;SDS011;15002;52.028;5.670;2023-06-14T10:12:49;3.35;;;2.30;;
27558;SDS011;15002;52.028;5.670;2023-06-14T10:15:17;6.00;;;1.70;;
27558;SDS011;15002;52.028;5.670;2023-06-14T10:17:56;2.10;;;1.55;;
27558;SDS011;15002;52.028;5.670;2023-06-14T10:23:21;5.00;;;1.67;;
27558;SDS011;15002;52.028;5.670;2023-06-14T10:25:56;3.22;;;1.73;;
27558;SDS011;15002;52.028;5.670;2023-06-14T10:28:22;2.22;;;1.65;;
27558;SDS011;15002;52.028;5.670;2023-06-14T10:33:56;6.80;;;1.80;;
27558;SDS011;15002;52.028;5.670;2023-06-14T10:39:00;4.72;;;1.70;;
27558;SDS011;15002;52.028;5.670;2023-06-14T10:41:29;5.35;;;1.90;;
27558;SDS011;15002;52.028;5.670;2023-06-14T10:44:10;3.50;;;1.60;;
27558;SDS011;15002;52.028;5.670;2023-06-14T10:46:58;4.53;;;1.42;;
27558;SDS011;15002;52.028;5.670;2023-06-14T10:49:38;1.75;;;1.48;;
27558;SDS011;15002;52.028;5.670;2023-06-14T10:52:13;3.45;;;1.70;;
27558;SDS011;15002;52.028;5.670;2023-06-14T10:57:50;2.70;;;1.70;;
27558;SDS011;15002;52.028;5.670;2023-06-14T11:00:35;1.95;;;1.50;;
27558;SDS011;15002;52.028;5.670;2023-06-14T11:05:40;4.50;;;1.60;;
27558;SDS011;15002;52.028;5.670;2023-06-14T11:11:00;12.82;;;2.05;;
27558;SDS011;15002;52.028;5.670;2023-06-14T11:13:30;2.13;;;1.63;;
27558;SDS011;15002;52.028;5.670;2023-06-14T11:15:56;1.52;;;1.40;;
27558;SDS011;15002;52.028;5.670;2023-06-14T11:18:22;5.03;;;2.00;;
27558;SDS011;15002;52.028;5.670;2023-06-14T11:20:55;3.22;;;1.40;;
27558;SDS011;15002;52.028;5.670;2023-06-14T11:23:21;2.15;;;1.80;;
27558;SDS011;15002;52.028;5.670;2023-06-14T11:25:51;3.30;;;1.90;;
27558;SDS011;15002;52.028;5.670;2023-06-14T11:28:17;3.88;;;1.80;;
27558;SDS011;15002;52.028;5.670;2023-06-14T11:30:45;3.58;;;1.77;;
27558;SDS011;15002;52.028;5.670;2023-06-14T11:33:11;2.67;;;1.60;;
27558;SDS011;15002;52.028;5.670;2023-06-14T11:35:43;6.07;;;1.80;;
27558;SDS011;15002;52.028;5.670;2023-06-14T11:38:10;5.35;;;2.00;;
27558;SDS011;15002;52.028;5.670;2023-06-14T11:40:37;4.38;;;1.73;;
27558;SDS011;15002;52.028;5.670;2023-06-14T11:43:03;5.80;;;1.50;;
27558;SDS011;15002;52.028;5.670;2023-06-14T11:45:30;2.17;;;1.60;;
27558;SDS011;15002;52.028;5.670;2023-06-14T11:47:58;5.57;;;2.13;;
27558;SDS011;15002;52.028;5.670;2023-06-14T11:50:25;2.35;;;1.50;;
27558;SDS011;15002;52.028;5.670;2023-06-14T11:52:55;2.17;;;1.52;;
27558;SDS011;15002;52.028;5.670;2023-06-14T11:55:28;2.60;;;1.83;;
27558;SDS011;15002;52.028;5.670;2023-06-14T11:57:54;6.50;;;1.83;;
27558;SDS011;15002;52.028;5.670;2023-06-14T12:00:24;2.67;;;1.73;;
27558;SDS011;15002;52.028;5.670;2023-06-14T12:02:53;5.38;;;2.17;;
27558;SDS011;15002;52.028;5.670;2023-06-14T12:05:23;4.45;;;1.70;;
27558;SDS011;15002;52.028;5.670;2023-06-14T12:07:57;4.93;;;1.70;;
27558;SDS011;15002;52.028;5.670;2023-06-14T12:10:25;2.25;;;1.65;;
27558;SDS011;15002;52.028;5.670;2023-06-14T12:12:51;5.38;;;1.73;;
27558;SDS011;15002;52.028;5.670;2023-06-14T12:15:23;2.58;;;1.83;;
27558;SDS011;15002;52.028;5.670;2023-06-14T12:17:49;3.50;;;1.83;;
27558;SDS011;15002;52.028;5.670;2023-06-14T12:20:15;3.53;;;1.80;;
27558;SDS011;15002;52.028;5.670;2023-06-14T12:22:54;6.72;;;1.80;;
27558;SDS011;15002;52.028;5.670;2023-06-14T12:25:33;2.47;;;1.80;;
27558;SDS011;15002;52.028;5.670;2023-06-14T12:28:05;3.17;;;1.70;;
27558;SDS011;15002;52.028;5.670;2023-06-14T12:30:33;2.30;;;1.90;;
27558;SDS011;15002;52.028;5.670;2023-06-14T12:33:00;6.68;;;1.90;;
27558;SDS011;15002;52.028;5.670;2023-06-14T12:35:26;2.22;;;1.63;;
27558;SDS011;15002;52.028;5.670;2023-06-14T12:37:52;1.98;;;1.70;;
27558;SDS011;15002;52.028;5.670;2023-06-14T12:40:18;3.00;;;1.90;;
27558;SDS011;15002;52.028;5.670;2023-06-14T12:42:44;2.42;;;1.90;;
27558;SDS011;15002;52.028;5.670;2023-06-14T12:45:12;2.65;;;1.90;;
27558;SDS011;15002;52.028;5.670;2023-06-14T12:47:38;4.07;;;1.77;;
27558;SDS011;15002;52.028;5.670;2023-06-14T12:50:04;1.83;;;1.30;;
27558;SDS011;15002;52.028;5.670;2023-06-14T12:52:31;5.50;;;1.73;;
27558;SDS011;15002;52.028;5.670;2023-06-14T12:54:56;2.75;;;1.60;;
27558;SDS011;15002;52.028;5.670;2023-06-14T12:57:23;4.68;;;1.80;;
27558;SDS011;15002;52.028;5.670;2023-06-14T12:59:49;1.60;;;1.48;;
27558;SDS011;15002;52.028;5.670;2023-06-14T13:02:15;6.28;;;1.40;;
27558;SDS011;15002;52.028;5.670;2023-06-14T13:04:42;2.42;;;1.60;;
27558;SDS011;15002;52.028;5.670;2023-06-14T13:07:08;3.50;;;1.35;;
27558;SDS011;15002;52.028;5.670;2023-06-14T13:09:35;2.00;;;1.40;;
27558;SDS011;15002;52.028;5.670;2023-06-14T13:12:01;3.08;;;1.35;;
27558;SDS011;15002;52.028;5.670;2023-06-14T13:14:27;2.83;;;1.42;;
27558;SDS011;15002;52.028;5.670;2023-06-14T13:16:53;3.15;;;1.23;;
27558;SDS011;15002;52.028;5.670;2023-06-14T13:19:19;3.28;;;1.40;;
27558;SDS011;15002;52.028;5.670;2023-06-14T13:21:45;4.63;;;2.45;;
27558;SDS011;15002;52.028;5.670;2023-06-14T13:24:11;2.88;;;1.50;;
27558;SDS011;15002;52.028;5.670;2023-06-14T13:26:37;3.65;;;1.55;;
27558;SDS011;15002;52.028;5.670;2023-06-14T13:29:02;2.80;;;1.95;;
27558;SDS011;15002;52.028;5.670;2023-06-14T13:31:28;4.63;;;1.30;;
27558;SDS011;15002;52.028;5.670;2023-06-14T13:33:54;2.17;;;1.30;;
27558;SDS011;15002;52.028;5.670;2023-06-14T13:36:20;2.95;;;1.55;;
27558;SDS011;15002;52.028;5.670;2023-06-14T13:38:46;1.63;;;1.40;;
27558;SDS011;15002;52.028;5.670;2023-06-14T13:41:11;1.83;;;1.42;;
27558;SDS011;15002;52.028;5.670;2023-06-14T13:43:37;3.08;;;1.40;;
27558;SDS011;15002;52.028;5.670;2023-06-14T13:46:03;4.05;;;1.45;;
27558;SDS011;15002;52.028;5.670;2023-06-14T13:48:29;1.60;;;1.20;;
27558;SDS011;15002;52.028;5.670;2023-06-14T13:50:54;5.75;;;1.33;;
27558;SDS011;15002;52.028;5.670;2023-06-14T13:53:20;4.38;;;1.63;;
27558;SDS011;15002;52.028;5.670;2023-06-14T13:55:46;2.38;;;1.50;;
27558;SDS011;15002;52.028;5.670;2023-06-14T13:58:12;3.47;;;1.48;;
27558;SDS011;15002;52.028;5.670;2023-06-14T14:00:40;2.15;;;1.35;;
27558;SDS011;15002;52.028;5.670;2023-06-14T14:03:06;1.23;;;1.13;;
27558;SDS011;15002;52.028;5.670;2023-06-14T14:05:31;1.60;;;1.50;;
27558;SDS011;15002;52.028;5.670;2023-06-14T14:07:58;2.50;;;1.40;;
27558;SDS011;15002;52.028;5.670;2023-06-14T14:10:26;1.75;;;1.30;;
27558;SDS011;15002;52.028;5.670;2023-06-14T14:12:52;2.78;;;1.40;;
27558;SDS011;15002;52.028;5.670;2023-06-14T14:15:19;4.18;;;1.50;;
27558;SDS011;15002;52.028;5.670;2023-06-14T14:17:45;2.63;;;1.48;;
27558;SDS011;15002;52.028;5.670;2023-06-14T14:20:12;3.63;;;1.60;;
27558;SDS011;15002;52.028;5.670;2023-06-14T14:22:40;2.38;;;1.55;;
27558;SDS011;15002;52.028;5.670;2023-06-14T14:25:06;1.83;;;1.38;;
27558;SDS011;15002;52.028;5.670;2023-06-14T14:27:32;1.88;;;1.40;;
27558;SDS011;15002;52.028;5.670;2023-06-14T14:29:58;3.72;;;2.20;;
27558;SDS011;15002;52.028;5.670;2023-06-14T14:32:23;1.45;;;1.20;;
27558;SDS011;15002;52.028;5.670;2023-06-14T14:34:49;1.63;;;1.40;;
27558;SDS011;15002;52.028;5.670;2023-06-14T14:37:15;1.45;;;1.20;;
27558;SDS011;15002;52.028;5.670;2023-06-14T14:39:41;4.50;;;1.50;;
27558;SDS011;15002;52.028;5.670;2023-06-14T14:42:07;3.25;;;1.42;;
27558;SDS011;15002;52.028;5.670;2023-06-14T14:44:33;2.67;;;1.30;;
27558;SDS011;15002;52.028;5.670;2023-06-14T14:46:58;1.73;;;1.58;;
27558;SDS011;15002;52.028;5.670;2023-06-14T14:49:24;2.35;;;1.50;;
27558;SDS011;15002;52.028;5.670;2023-06-14T14:51:50;1.52;;;1.38;;
27558;SDS011;15002;52.028;5.670;2023-06-14T14:54:15;3.10;;;1.77;;
27558;SDS011;15002;52.028;5.670;2023-06-14T14:56:41;2.55;;;1.27;;
27558;SDS011;15002;52.028;5.670;2023-06-14T14:59:08;1.67;;;1.30;;
27558;SDS011;15002;52.028;5.670;2023-06-14T15:01:34;5.60;;;1.42;;
27558;SDS011;15002;52.028;5.670;2023-06-14T15:03:59;4.53;;;1.33;;
27558;SDS011;15002;52.028;5.670;2023-06-14T15:06:26;1.88;;;1.15;;